createdAt,value
2018-11-21T00:00:48.554Z,33.00
2018-11-21T00:03:17.708Z,34.53
2018-11-21T00:05:46.968Z,34.87
2018-11-21T00:08:16.565Z,34.87
2018-11-21T00:10:45.884Z,33.17
2018-11-21T00:13:15.057Z,34.87
2018-11-21T00:15:44.255Z,34.67
2018-11-21T00:18:13.408Z,34.40
2018-11-21T00:20:42.604Z,34.80
2018-11-21T00:23:11.774Z,34.53
2018-11-21T00:25:40.961Z,34.67
2018-11-21T00:28:10.228Z,33.60
2018-11-21T00:30:39.504Z,34.77
2018-11-21T00:33:08.668Z,33.80
2018-11-21T00:35:37.923Z,35.60
2018-11-21T00:38:07.076Z,34.87
2018-11-21T00:40:36.271Z,35.20
2018-11-21T00:43:05.621Z,35.47
2018-11-21T00:45:34.816Z,34.37
2018-11-21T00:48:03.976Z,35.27
2018-11-21T00:50:33.167Z,35.40
2018-11-21T00:53:02.337Z,35.57
2018-11-21T00:55:31.596Z,35.07
2018-11-21T00:58:00.763Z,35.50
2018-11-21T01:00:30.338Z,34.93
2018-11-21T01:02:59.701Z,35.60
2018-11-21T01:05:28.880Z,35.27
2018-11-21T01:07:58.088Z,35.80
2018-11-21T01:10:27.274Z,34.00
2018-11-21T01:12:56.482Z,34.23
2018-11-21T01:15:25.681Z,35.33
2018-11-21T01:17:55.082Z,35.77
2018-11-21T01:20:24.474Z,34.10
2018-11-21T01:22:53.682Z,36.40
2018-11-21T01:25:22.985Z,34.63
2018-11-21T01:27:52.588Z,34.77
2018-11-21T01:30:21.736Z,35.10
2018-11-21T01:32:50.926Z,34.07
2018-11-21T01:35:20.072Z,33.60
2018-11-21T01:37:49.268Z,34.67
2018-11-21T01:40:18.470Z,33.27
2018-11-21T01:42:47.666Z,35.03
2018-11-21T01:45:16.967Z,33.50
2018-11-21T01:47:46.190Z,34.00
2018-11-21T01:50:15.350Z,34.97
2018-11-21T01:52:44.659Z,35.43
2018-11-21T01:55:13.819Z,33.83
2018-11-21T01:57:43.462Z,34.43
2018-11-21T02:00:13.169Z,35.77
2018-11-21T02:02:42.470Z,34.67
2018-11-21T02:05:11.652Z,35.50
2018-11-21T02:07:40.927Z,34.43
2018-11-21T02:10:10.088Z,34.57
2018-11-21T02:12:39.670Z,36.23
2018-11-21T02:15:08.882Z,35.77
2018-11-21T02:17:38.162Z,36.73
2018-11-21T02:20:08.484Z,34.73
2018-11-21T02:22:37.751Z,36.90
2018-11-21T02:25:07.816Z,35.77
2018-11-21T02:27:37.198Z,37.70
2018-11-21T02:30:07.792Z,35.53
2018-11-21T02:32:36.964Z,35.77
2018-11-21T02:35:07.465Z,38.20
2018-11-21T02:37:36.960Z,37.20
2018-11-21T02:40:06.872Z,36.93
2018-11-21T02:42:36.175Z,36.97
2018-11-21T02:45:06.003Z,38.63
2018-11-21T02:47:35.166Z,38.27
2018-11-21T02:50:04.364Z,37.87
2018-11-21T02:52:33.555Z,37.30
2018-11-21T02:55:02.875Z,36.90
2018-11-21T02:57:33.380Z,37.87
2018-11-21T03:00:06.080Z,37.50
2018-11-21T03:02:35.242Z,37.97
2018-11-21T03:05:04.574Z,38.53
2018-11-21T03:07:33.755Z,38.83
2018-11-21T03:10:03.001Z,36.90
2018-11-21T03:12:32.444Z,39.10
2018-11-21T03:15:01.644Z,37.50
2018-11-21T03:17:30.788Z,38.47
2018-11-21T03:19:59.975Z,35.73
2018-11-21T03:22:29.980Z,37.00
2018-11-21T03:24:59.206Z,37.07
2018-11-21T03:27:28.527Z,38.37
2018-11-21T03:29:57.789Z,37.30
2018-11-21T03:32:26.997Z,37.97
2018-11-21T03:34:56.526Z,37.03
2018-11-21T03:37:25.688Z,36.83
2018-11-21T03:39:54.967Z,37.67
2018-11-21T03:42:24.164Z,38.83
2018-11-21T03:44:53.385Z,38.00
2018-11-21T03:47:22.549Z,36.07
2018-11-21T03:49:51.755Z,36.33
2018-11-21T03:52:20.978Z,36.13
2018-11-21T03:54:50.252Z,37.97
2018-11-21T03:57:19.767Z,36.80
2018-11-21T03:59:48.924Z,36.37
2018-11-21T04:02:18.132Z,36.30
2018-11-21T04:04:47.304Z,36.23
2018-11-21T04:07:16.518Z,36.80
2018-11-21T04:09:45.845Z,37.93
2018-11-21T04:12:15.046Z,35.17
2018-11-21T04:14:44.203Z,36.00
2018-11-21T04:17:13.431Z,34.90
2018-11-21T04:19:43.047Z,35.47
2018-11-21T04:22:12.253Z,35.17
2018-11-21T04:24:41.484Z,35.57
2018-11-21T04:27:10.729Z,35.93
2018-11-21T04:29:40.035Z,36.20
2018-11-21T04:32:09.228Z,35.43
2018-11-21T04:34:38.412Z,35.70
2018-11-21T04:37:07.748Z,34.73
2018-11-21T04:39:36.905Z,35.03
2018-11-21T04:42:06.478Z,34.20
2018-11-21T04:44:35.722Z,33.87
2018-11-21T04:47:05.026Z,33.93
2018-11-21T04:49:34.323Z,34.83
2018-11-21T04:52:03.619Z,35.33
2018-11-21T04:54:33.145Z,34.20
2018-11-21T04:57:02.296Z,34.57
2018-11-21T04:59:31.516Z,35.97
2018-11-21T05:02:01.177Z,36.67
2018-11-21T05:04:30.516Z,34.43
2018-11-21T05:07:00.292Z,33.40
2018-11-21T05:09:29.491Z,35.40
2018-11-21T05:11:58.847Z,34.20
2018-11-21T05:14:28.028Z,32.70
2018-11-21T05:16:58.080Z,33.87
2018-11-21T05:19:26.389Z,34.37
2018-11-21T05:21:55.599Z,32.63
2018-11-21T05:24:24.779Z,33.73
2018-11-21T05:26:54.008Z,31.27
2018-11-21T05:29:23.208Z,30.43
2018-11-21T05:31:52.437Z,31.57
2018-11-21T05:34:21.715Z,31.73
2018-11-21T05:36:50.971Z,31.67
2018-11-21T05:39:20.170Z,31.57
2018-11-21T05:41:49.378Z,31.83
2018-11-21T05:44:18.543Z,32.57
2018-11-21T05:46:53.452Z,32.83
2018-11-21T05:49:16.980Z,30.10
2018-11-21T05:51:46.191Z,30.27
2018-11-21T05:54:15.384Z,30.70
2018-11-21T05:56:44.760Z,29.77
2018-11-21T05:59:13.986Z,30.93
2018-11-21T06:01:43.175Z,29.60
2018-11-21T06:04:12.338Z,29.77
2018-11-21T06:06:41.530Z,30.03
2018-11-21T06:09:12.215Z,30.67
2018-11-21T06:11:42.422Z,31.13
2018-11-21T06:14:11.720Z,31.50
2018-11-21T06:16:40.956Z,31.47
2018-11-21T06:19:10.219Z,31.97
2018-11-21T06:21:39.422Z,33.00
2018-11-21T06:24:08.575Z,32.87
2018-11-21T06:26:37.945Z,33.40
2018-11-21T06:29:07.107Z,32.93
2018-11-21T06:31:37.256Z,35.03
2018-11-21T06:34:06.441Z,33.90
2018-11-21T06:36:35.722Z,33.87
2018-11-21T06:39:06.561Z,34.63
2018-11-21T06:41:35.755Z,34.27
2018-11-21T06:44:04.906Z,35.63
2018-11-21T06:46:34.121Z,36.00
2018-11-21T06:49:03.348Z,36.47
2018-11-21T06:51:35.292Z,35.93
2018-11-21T06:54:02.563Z,35.77
2018-11-21T06:56:31.749Z,37.73
2018-11-21T06:59:00.989Z,37.10
2018-11-21T07:01:30.928Z,36.97
2018-11-21T07:04:00.193Z,37.73
2018-11-21T07:06:29.405Z,37.23
2018-11-21T07:08:58.613Z,36.87
2018-11-21T07:11:28.266Z,37.27
2018-11-21T07:13:57.449Z,36.47
2018-11-21T07:16:26.865Z,37.73
2018-11-21T07:18:56.411Z,35.33
2018-11-21T07:21:25.625Z,37.07
2018-11-21T07:23:54.964Z,36.77
2018-11-21T07:26:24.239Z,36.43
2018-11-21T07:28:53.391Z,36.53
2018-11-21T07:31:22.869Z,35.67
2018-11-21T07:33:52.053Z,35.07
2018-11-21T07:36:21.627Z,35.33
2018-11-21T07:38:51.170Z,35.63
2018-11-21T07:41:20.472Z,35.50
2018-11-21T07:43:49.769Z,34.77
2018-11-21T07:46:18.976Z,34.37
2018-11-21T07:48:48.176Z,34.60
2018-11-21T07:51:17.590Z,36.30
2018-11-21T07:53:46.831Z,35.07
2018-11-21T07:57:13.610Z,34.43
2018-11-21T08:00:20.262Z,35.30
2018-11-21T08:02:49.478Z,33.47
2018-11-21T08:05:29.459Z,34.70
2018-11-21T08:08:08.330Z,33.23
2018-11-21T08:10:56.597Z,34.03
2018-11-21T08:14:00.633Z,34.33
2018-11-21T08:16:57.966Z,33.10
2018-11-21T08:19:44.571Z,35.27
2018-11-21T08:22:38.939Z,34.80
2018-11-21T08:25:26.298Z,33.50
2018-11-21T08:28:17.595Z,33.13
2018-11-21T08:30:46.762Z,33.93
2018-11-21T08:33:15.982Z,35.10
2018-11-21T08:35:45.602Z,34.63
2018-11-21T08:38:15.205Z,35.40
2018-11-21T08:40:44.499Z,33.97
2018-11-21T08:43:13.719Z,34.47
2018-11-21T08:45:43.100Z,36.03
2018-11-21T08:48:12.941Z,34.60
2018-11-21T08:50:42.105Z,34.20
2018-11-21T08:53:11.344Z,34.87
2018-11-21T08:55:40.897Z,33.57
2018-11-21T08:58:10.328Z,31.07
2018-11-21T09:00:39.530Z,35.47
2018-11-21T09:03:08.837Z,33.90
2018-11-21T09:05:38.110Z,35.23
2018-11-21T09:08:08.151Z,34.17
2018-11-21T09:10:37.422Z,34.37
2018-11-21T09:13:06.681Z,34.63
2018-11-21T09:15:35.855Z,34.53
2018-11-21T09:18:05.334Z,34.63
2018-11-21T09:20:34.533Z,35.30
2018-11-21T09:23:03.813Z,33.93
2018-11-21T09:25:33.055Z,35.60
2018-11-21T09:28:02.374Z,35.60
2018-11-21T09:30:31.642Z,35.17
2018-11-21T09:33:01.420Z,36.07
2018-11-21T09:35:31.548Z,34.27
2018-11-21T09:38:00.734Z,36.20
2018-11-21T09:40:30.036Z,35.83
2018-11-21T09:42:59.224Z,37.50
2018-11-21T09:45:28.447Z,35.57
2018-11-21T09:47:57.788Z,37.37
2018-11-21T09:50:28.767Z,36.77
2018-11-21T09:52:57.943Z,35.67
2018-11-21T09:55:27.268Z,35.83
2018-11-21T09:57:56.879Z,36.93
2018-11-21T10:01:03.238Z,36.50
2018-11-21T10:03:34.005Z,37.13
2018-11-21T10:06:09.295Z,36.03
2018-11-21T10:08:46.089Z,37.83
2018-11-21T10:11:15.681Z,37.90
2018-11-21T10:13:45.013Z,38.90
2018-11-21T10:16:14.296Z,38.77
2018-11-21T10:18:45.249Z,39.00
2018-11-21T10:21:15.965Z,38.60
2018-11-21T10:23:45.333Z,39.53
2018-11-21T10:26:14.978Z,38.70
2018-11-21T10:28:44.733Z,39.07
2018-11-21T10:31:13.916Z,38.73
2018-11-21T10:33:43.282Z,37.10
2018-11-21T10:36:12.710Z,38.13
2018-11-21T10:38:42.117Z,38.40
2018-11-21T10:41:11.337Z,39.40
2018-11-21T10:43:40.684Z,38.93
2018-11-21T10:46:09.980Z,38.07
2018-11-21T10:48:39.173Z,38.70
2018-11-21T10:51:08.830Z,38.57
2018-11-21T10:53:38.287Z,39.70
2018-11-21T10:56:07.918Z,39.17
2018-11-21T10:58:37.500Z,40.47
2018-11-21T11:01:24.922Z,40.20
2018-11-21T11:04:06.720Z,39.80
2018-11-21T11:06:53.942Z,40.23
2018-11-21T11:09:41.672Z,40.40
2018-11-21T11:12:35.949Z,41.13
2018-11-21T11:15:36.448Z,40.57
2018-11-21T11:18:23.494Z,40.83
2018-11-21T11:21:18.106Z,39.87
2018-11-21T11:24:06.432Z,41.20
2018-11-21T11:27:09.932Z,41.67
2018-11-21T11:30:16.697Z,41.13
2018-11-21T11:33:10.891Z,39.97
2018-11-21T11:36:08.453Z,39.17
2018-11-21T11:38:55.878Z,40.17
2018-11-21T11:41:44.167Z,40.93
2018-11-21T11:44:31.237Z,40.33
2018-11-21T11:47:28.698Z,39.50
2018-11-21T11:50:08.283Z,39.70
2018-11-21T11:53:04.777Z,40.67
2018-11-21T11:55:52.100Z,40.50
2018-11-21T11:58:40.498Z,40.43
2018-11-21T12:01:40.971Z,40.73
2018-11-21T12:04:38.228Z,40.83
2018-11-21T12:07:25.424Z,38.70
2018-11-21T12:10:12.565Z,39.90
2018-11-21T12:13:00.087Z,40.93
2018-11-21T12:16:03.596Z,40.07
2018-11-21T12:19:00.686Z,41.57
2018-11-21T12:21:55.128Z,40.60
2018-11-21T12:24:42.245Z,40.47
2018-11-21T12:27:34.492Z,41.30
2018-11-21T12:30:17.122Z,41.27
2018-11-21T12:33:20.803Z,42.67
2018-11-21T12:36:07.511Z,42.80
2018-11-21T12:38:54.761Z,41.77
2018-11-21T12:41:46.254Z,42.07
2018-11-21T12:44:24.240Z,43.37
2018-11-21T12:47:11.364Z,43.20
2018-11-21T12:49:58.647Z,43.17
2018-11-21T12:52:46.882Z,43.43
2018-11-21T12:55:45.544Z,42.60
2018-11-21T12:58:33.042Z,42.93
2018-11-21T13:01:20.365Z,42.10
2018-11-21T13:03:55.915Z,42.20
2018-11-21T13:06:46.814Z,41.30
2018-11-21T13:09:34.238Z,41.47
2018-11-21T13:12:28.729Z,41.53
2018-11-21T13:15:29.364Z,39.70
2018-11-21T13:18:20.677Z,39.80
2018-11-21T13:21:05.977Z,43.43
2018-11-21T13:23:44.363Z,43.87
2018-11-21T13:26:44.794Z,42.03
2018-11-21T13:29:31.914Z,42.20
2018-11-21T13:32:19.587Z,43.53
2018-11-21T13:35:06.864Z,41.80
2018-11-21T13:37:54.181Z,42.80
2018-11-21T13:40:57.887Z,42.83
2018-11-21T13:43:45.110Z,41.43
2018-11-21T13:46:36.429Z,42.83
2018-11-21T13:49:39.921Z,43.73
2018-11-21T13:52:27.142Z,44.10
2018-11-21T13:54:57.818Z,43.83
2018-11-21T13:57:27.481Z,43.27
2018-11-21T13:59:56.983Z,44.73
2018-11-21T14:02:26.391Z,43.57
2018-11-21T14:04:56.196Z,44.60
2018-11-21T14:07:25.456Z,43.97
2018-11-21T14:09:54.694Z,44.80
2018-11-21T14:12:24.312Z,44.83
2018-11-21T14:14:53.500Z,46.03
2018-11-21T14:17:27.508Z,45.77
2018-11-21T14:19:52.406Z,46.47
2018-11-21T14:22:22.159Z,47.37
2018-11-21T14:24:51.581Z,46.90
2018-11-21T14:27:20.811Z,48.30
2018-11-21T14:29:50.177Z,46.67
2018-11-21T14:32:20.379Z,47.67
2018-11-21T14:34:49.550Z,46.80
2018-11-21T14:37:19.135Z,45.93
2018-11-21T14:39:48.328Z,46.90
2018-11-21T14:42:17.557Z,45.77
2018-11-21T14:44:47.036Z,45.60
2018-11-21T14:47:17.117Z,46.37
2018-11-21T14:49:49.931Z,45.43
2018-11-21T14:52:19.271Z,44.43
2018-11-21T14:54:48.467Z,44.37
2018-11-21T14:57:18.037Z,44.93
2018-11-21T14:59:47.641Z,40.87
2018-11-21T15:02:17.118Z,41.47
2018-11-21T15:04:46.342Z,39.83
2018-11-21T15:07:15.705Z,41.10
2018-11-21T15:09:44.945Z,40.33
2018-11-21T15:12:14.240Z,39.07
2018-11-21T15:14:43.743Z,38.30
2018-11-21T15:17:12.939Z,37.87
2018-11-21T15:19:42.150Z,39.00
2018-11-21T15:22:11.375Z,36.60
2018-11-21T15:24:40.943Z,37.40
2018-11-21T15:27:10.442Z,37.70
2018-11-21T15:29:39.760Z,37.83
2018-11-21T15:32:09.011Z,38.93
2018-11-21T15:34:38.636Z,40.57
2018-11-21T15:37:10.710Z,41.43
2018-11-21T15:39:40.200Z,40.30
2018-11-21T15:42:10.232Z,42.07
2018-11-21T15:44:39.536Z,42.37
2018-11-21T15:47:08.874Z,41.53
2018-11-21T15:49:38.333Z,43.20
2018-11-21T15:52:07.536Z,39.20
2018-11-21T15:54:36.931Z,40.07
2018-11-21T15:57:06.294Z,37.93
2018-11-21T15:59:35.528Z,37.17
2018-11-21T16:02:04.788Z,35.33
2018-11-21T16:04:34.129Z,33.70
2018-11-21T16:07:03.346Z,33.53
2018-11-21T16:09:32.839Z,34.60
2018-11-21T16:12:02.309Z,33.13
2018-11-21T16:14:31.995Z,34.60
2018-11-21T16:17:01.651Z,33.70
2018-11-21T16:19:31.326Z,34.60
2018-11-21T16:22:01.047Z,33.57
2018-11-21T16:24:31.240Z,33.43
2018-11-21T16:27:01.045Z,31.87
2018-11-21T16:29:36.548Z,31.23
2018-11-21T16:32:00.293Z,32.77
2018-11-21T16:34:29.970Z,32.43
2018-11-21T16:36:59.643Z,31.70
2018-11-21T16:39:29.413Z,32.10
2018-11-21T16:41:59.136Z,32.60
2018-11-21T16:44:28.802Z,32.80
2018-11-21T16:46:58.442Z,33.53
2018-11-21T16:49:28.531Z,33.63
2018-11-21T16:51:58.304Z,35.10
2018-11-21T16:54:27.946Z,32.90
2018-11-21T16:56:57.622Z,32.03
2018-11-21T16:59:27.298Z,31.97
2018-11-21T17:01:56.972Z,32.30
2018-11-21T17:04:26.610Z,29.77
2018-11-21T17:06:56.424Z,31.27
2018-11-21T17:09:27.651Z,31.60
2018-11-21T17:11:57.886Z,31.50
2018-11-21T17:14:27.569Z,34.50
2018-11-21T17:16:57.302Z,35.13
2018-11-21T17:19:26.990Z,35.50
2018-11-21T17:21:56.600Z,34.30
2018-11-21T17:24:26.300Z,37.67
2018-11-21T17:26:56.255Z,37.07
2018-11-21T17:29:25.921Z,40.07
2018-11-21T17:31:55.661Z,40.97
2018-11-21T17:34:25.747Z,38.77
2018-11-21T17:36:55.789Z,40.47
2018-11-21T17:39:25.382Z,40.50
2018-11-21T17:41:55.181Z,39.67
2018-11-21T17:44:28.896Z,40.70
2018-11-21T17:46:58.654Z,40.53
2018-11-21T17:49:28.300Z,40.70
2018-11-21T17:51:58.141Z,39.50
2018-11-21T17:54:27.829Z,41.40
2018-11-21T17:56:57.668Z,39.37
2018-11-21T17:59:27.851Z,37.60
2018-11-21T18:01:57.491Z,37.77
2018-11-21T18:04:27.384Z,37.30
2018-11-21T18:06:57.474Z,38.53
2018-11-21T18:09:28.102Z,39.43
2018-11-21T18:11:57.930Z,38.37
2018-11-21T18:14:27.605Z,40.07
2018-11-21T18:16:57.279Z,37.23
2018-11-21T18:19:27.471Z,37.87
2018-11-21T18:21:57.219Z,36.90
2018-11-21T18:24:26.883Z,36.87
2018-11-21T18:26:56.751Z,37.30
2018-11-21T18:29:26.457Z,35.43
2018-11-21T18:31:56.247Z,35.90
2018-11-21T18:34:25.926Z,34.63
2018-11-21T18:36:55.563Z,33.87
2018-11-21T18:39:25.302Z,32.73
2018-11-21T18:41:57.960Z,35.03
2018-11-21T18:44:24.746Z,34.93
2018-11-21T18:46:54.370Z,36.60
2018-11-21T18:49:24.012Z,37.17
2018-11-21T18:51:53.747Z,36.83
2018-11-21T18:54:23.428Z,38.43
2018-11-21T18:57:36.848Z,39.73
2018-11-21T19:00:11.412Z,39.33
2018-11-21T19:02:41.221Z,40.63
